Time;durP1;ratioP1;P1;durP2;ratioP2;P2;SDS_P1;SDS_P2;PMS_P1;PMS_P2;Temp;Humidity;BMP_temperature;BMP_pressure;BME280_temperature;BME280_humidity;BME280_pressure;Samples;Min_cycle;Max_cycle;Signal;HPM_P1;HPM_P2
2023/04/08 00:00:06;;;;;;;10.03;8.97;;;;;;;22.94;34.03;95096.97;6065079;28;110025;-62
2023/04/08 00:03:11;;;;;;;10.53;9.60;;;;;;;22.96;34.21;95093.97;6083056;22;109132;-62
2023/04/08 00:06:15;;;;;;;9.87;9.07;;;;;;;22.96;34.30;95089.44;6101479;28;108866;-62
2023/04/08 00:09:18;;;;;;;10.40;9.60;;;;;;;22.96;33.75;95099.31;6085957;28;109134;-62
2023/04/08 00:12:21;;;;;;;9.40;8.60;;;;;;;22.95;33.79;95095.88;6079982;28;108993;-62
2023/04/08 00:15:24;;;;;;;9.27;8.50;;;;;;;22.94;34.12;95099.63;6065921;28;110225;-62
2023/04/08 00:18:29;;;;;;;10.07;9.17;;;;;;;22.94;34.34;95096.97;6078242;28;108987;-62
2023/04/08 00:21:32;;;;;;;9.20;8.40;;;;;;;22.95;33.86;95103.09;6084650;28;109192;-62
2023/04/08 00:24:35;;;;;;;9.10;8.30;;;;;;;22.95;34.12;95109.22;6081657;28;109371;-60
2023/04/08 00:27:38;;;;;;;9.70;9.00;;;;;;;22.97;33.75;95106.22;6060402;28;110404;-61
2023/04/08 00:30:41;;;;;;;9.67;8.87;;;;;;;22.96;33.54;95102.00;6089446;28;108966;-61
2023/04/08 00:33:45;;;;;;;8.70;8.10;;;;;;;22.97;33.86;95106.22;6126016;28;110231;-60
2023/04/08 00:36:48;;;;;;;9.57;8.77;;;;;;;22.98;33.82;95102.47;6103406;28;110114;-61
2023/04/08 00:39:52;;;;;;;8.97;8.17;;;;;;;22.97;33.85;95103.56;6080338;28;109185;-62
2023/04/08 00:42:57;;;;;;;8.70;8.00;;;;;;;22.94;33.72;95099.63;6089140;28;109986;-63
2023/04/08 00:46:00;;;;;;;9.00;8.23;;;;;;;22.96;33.47;95100.09;6082513;28;109073;-60
2023/04/08 00:49:06;;;;;;;8.90;8.20;;;;;;;22.95;33.97;95098.53;6068961;28;109345;-62
2023/04/08 00:52:09;;;;;;;9.17;8.47;;;;;;;22.95;33.83;95116.44;6080553;28;110164;-61
2023/04/08 00:55:12;;;;;;;8.47;7.87;;;;;;;22.93;33.75;95111.41;6079033;28;109199;-61
2023/04/08 00:58:17;;;;;;;8.50;7.80;;;;;;;22.95;33.77;95103.88;6080722;28;109963;-61
2023/04/08 01:01:26;;;;;;;8.23;7.53;;;;;;;22.94;33.68;95106.84;6061101;28;109251;-61
2023/04/08 01:04:40;;;;;;;8.70;8.00;;;;;;;22.96;34.12;95107.31;6086835;28;109890;-61
2023/04/08 01:07:47;;;;;;;8.57;7.77;;;;;;;22.95;33.59;95103.09;6087516;28;109104;-61
2023/04/08 01:10:53;;;;;;;8.20;7.50;;;;;;;22.97;33.91;95103.56;6132789;28;109857;-61
2023/04/08 01:13:58;;;;;;;13.03;8.57;;;;;;;22.96;33.77;95110.00;6106127;28;109679;-71
2023/04/08 01:17:02;;;;;;;13.07;9.50;;;;;;;22.88;33.93;95103.53;6066992;28;110041;-61
2023/04/08 01:20:09;;;;;;;11.30;9.33;;;;;;;22.88;33.43;95110.78;6083897;28;110191;-61
2023/04/08 01:23:25;;;;;;;14.33;9.20;;;;;;;22.89;33.36;95107.78;6118017;28;109302;-60
2023/04/08 01:26:30;;;;;;;10.30;9.30;;;;;;;22.90;33.73;95103.25;6131012;28;109390;-61
2023/04/08 01:29:34;;;;;;;11.47;9.27;;;;;;;22.90;33.40;95105.91;6076523;28;109004;-62
2023/04/08 01:32:41;;;;;;;11.10;9.30;;;;;;;22.90;33.29;95100.56;6071652;28;110260;-61
2023/04/08 01:35:45;;;;;;;14.73;9.27;;;;;;;22.89;33.97;95109.66;6057357;28;109103;-60
2023/04/08 01:38:49;;;;;;;11.30;9.27;;;;;;;22.87;33.51;95106.53;6097925;28;109109;-60
2023/04/08 01:41:56;;;;;;;11.43;8.17;;;;;;;22.89;33.50;95109.66;6076727;28;110087;-61
2023/04/08 01:45:00;;;;;;;10.63;8.90;;;;;;;22.87;33.33;95111.88;6090265;28;109262;-61
2023/04/08 01:48:05;;;;;;;15.53;8.87;;;;;;;22.88;33.98;95108.09;6074313;28;108892;-62
2023/04/08 01:51:09;;;;;;;9.77;8.50;;;;;;;22.87;33.69;95111.88;6074104;28;109990;-62
2023/04/08 01:54:12;;;;;;;9.30;8.37;;;;;;;22.87;33.32;95117.19;6073322;28;109111;-62
2023/04/08 01:57:22;;;;;;;9.60;8.70;;;;;;;22.87;33.56;95111.88;6075286;28;109214;-62
2023/04/08 02:00:27;;;;;;;13.30;8.20;;;;;;;22.86;33.38;95116.41;6145383;28;109254;-61
2023/04/08 02:03:32;;;;;;;11.57;8.63;;;;;;;22.86;33.73;95118.31;6103531;28;110334;-62
2023/04/08 02:06:37;;;;;;;9.67;7.90;;;;;;;22.86;33.55;95128.97;6085804;28;109011;-61
2023/04/08 02:09:40;;;;;;;7.60;6.90;;;;;;;22.85;33.12;95130.84;6057496;28;110102;-60
2023/04/08 02:12:47;;;;;;;9.20;8.30;;;;;;;22.85;33.06;95136.19;6082970;28;109439;-60
2023/04/08 02:15:57;;;;;;;9.33;7.50;;;;;;;22.85;32.91;95141.53;6090195;28;109901;-61
2023/04/08 02:19:07;;;;;;;8.33;6.87;;;;;;;22.83;33.06;95133.00;6117356;28;109067;-62
2023/04/08 02:22:17;;;;;;;9.43;7.80;;;;;;;22.85;33.18;95130.84;6177869;28;109244;-61
2023/04/08 02:25:24;;;;;;;8.83;7.87;;;;;;;22.85;33.07;95136.19;6188648;28;109072;-61
2023/04/08 02:28:30;;;;;;;8.33;7.63;;;;;;;22.83;33.21;95129.56;6187731;28;109224;-61
2023/04/08 02:31:34;;;;;;;8.87;7.47;;;;;;;22.82;33.25;95128.78;6092447;28;110265;-61
2023/04/08 02:34:40;;;;;;;7.53;6.90;;;;;;;22.84;32.99;95131.91;6133020;28;110158;-60
2023/04/08 02:37:44;;;;;;;7.80;7.10;;;;;;;22.84;33.02;95117.78;6182548;28;110640;-61
2023/04/08 02:40:50;;;;;;;8.90;7.83;;;;;;;22.83;33.06;95124.22;6187271;28;109064;-62
2023/04/08 02:43:54;;;;;;;7.40;6.70;;;;;;;22.83;33.13;95129.56;6126555;28;109021;-62
2023/04/08 02:46:57;;;;;;;7.90;7.20;;;;;;;22.82;32.80;95134.13;6083514;28;110278;-61
2023/04/08 02:50:00;;;;;;;8.00;7.30;;;;;;;22.83;32.71;95132.22;6084025;28;109177;-61
2023/04/08 02:53:04;;;;;;;8.40;7.23;;;;;;;22.82;32.99;95130.66;6083925;28;109972;-60
2023/04/08 02:56:10;;;;;;;8.20;7.40;;;;;;;22.83;32.58;95130.34;6072041;28;110420;-61
2023/04/08 02:59:14;;;;;;;8.30;6.70;;;;;;;22.82;32.73;95130.66;6080980;28;109115;-61
2023/04/08 03:02:17;;;;;;;9.70;7.30;;;;;;;22.83;32.82;95132.22;6088277;28;109410;-60
2023/04/08 03:05:20;;;;;;;8.13;7.33;;;;;;;22.83;33.11;95141.03;6061684;28;109013;-60
2023/04/08 03:08:24;;;;;;;7.70;7.00;;;;;;;22.83;32.93;95134.91;6091127;28;109176;-61
2023/04/08 03:11:27;;;;;;;7.60;6.80;;;;;;;22.82;33.06;95136.00;6095685;28;109314;-62
2023/04/08 03:14:32;;;;;;;8.63;7.77;;;;;;;22.84;33.01;95133.81;6087185;28;108845;-62
2023/04/08 03:17:35;;;;;;;7.30;6.70;;;;;;;22.85;32.66;95132.69;6171474;28;109100;-61
2023/04/08 03:20:38;;;;;;;7.13;6.53;;;;;;;22.84;33.05;95131.13;6156211;28;109016;-61
2023/04/08 03:23:41;;;;;;;7.20;6.60;;;;;;;22.83;32.48;95129.56;6087163;28;108998;-61
2023/04/08 03:26:44;;;;;;;7.70;7.10;;;;;;;22.84;32.95;95134.59;6084512;28;109333;-61
2023/04/08 03:29:49;;;;;;;6.63;6.07;;;;;;;22.85;32.47;95135.38;6071291;28;109203;-61
2023/04/08 03:32:52;;;;;;;7.27;6.67;;;;;;;22.85;33.04;95138.03;6120517;28;109055;-61
2023/04/08 03:35:55;;;;;;;9.53;8.63;;;;;;;22.83;32.90;95137.56;6111843;28;109379;-62
2023/04/08 03:38:58;;;;;;;7.47;6.87;;;;;;;22.84;32.97;95141.81;6138047;28;109971;-61
2023/04/08 03:42:02;;;;;;;7.10;6.53;;;;;;;22.84;33.04;95133.81;6102254;28;110176;-60
2023/04/08 03:45:08;;;;;;;6.93;6.40;;;;;;;22.83;32.97;95134.91;6073203;28;110520;-61
2023/04/08 03:48:11;;;;;;;7.60;6.90;;;;;;;22.84;32.96;95139.94;6117746;28;110936;-61
2023/04/08 03:51:14;;;;;;;16.00;14.60;;;;;;;22.77;33.56;95142.25;6075720;28;109661;-62
2023/04/08 03:54:17;;;;;;;14.10;12.70;;;;;;;22.79;33.35;95136.63;6136548;28;110573;-68
2023/04/08 03:57:20;;;;;;;14.50;13.20;;;;;;;22.73;33.47;95141.31;6084498;28;109120;-68
2023/04/08 04:00:24;;;;;;;16.80;15.20;;;;;;;22.69;33.23;95133.13;6101186;28;109447;-67
2023/04/08 04:03:27;;;;;;;29.60;27.10;;;;;;;22.67;33.28;95135.28;6053903;28;109240;-68
2023/04/08 04:06:31;;;;;;;52.73;47.40;;;;;;;22.64;33.05;95135.13;6067354;28;109006;-67
2023/04/08 04:09:34;;;;;;;63.07;57.43;;;;;;;22.62;32.96;95132.78;6083716;28;110347;-68
2023/04/08 04:12:37;;;;;;;69.80;63.33;;;;;;;22.62;32.40;95132.78;6086340;28;110138;-67
2023/04/08 04:15:42;;;;;;;80.20;73.00;;;;;;;22.60;32.87;95134.19;6077492;28;109854;-69
2023/04/08 04:18:45;;;;;;;90.60;82.80;;;;;;;22.60;32.71;95134.97;6087014;28;109084;-68
2023/04/08 04:21:48;;;;;;;88.60;80.97;;;;;;;22.59;32.72;95144.06;6172717;28;110777;-67
2023/04/08 04:24:51;;;;;;;92.73;84.53;;;;;;;22.58;32.46;95150.50;6180131;28;109205;-67
2023/04/08 04:27:54;;;;;;;94.40;86.10;;;;;;;22.59;32.19;95157.41;6173782;28;109023;-68
2023/04/08 04:30:58;;;;;;;94.77;86.07;;;;;;;22.61;32.07;95159.75;6132002;28;109269;-67
2023/04/08 04:34:02;;;;;;;75.47;67.37;;;;;;;22.52;32.46;95157.03;6086586;28;108960;-61
2023/04/08 04:37:05;;;;;;;60.27;54.77;;;;;;;22.48;31.37;95153.38;6073527;28;109186;-61
2023/04/08 04:40:08;;;;;;;46.17;41.83;;;;;;;22.42;30.36;95150.06;6128713;28;109538;-62
2023/04/08 04:43:11;;;;;;;50.40;45.63;;;;;;;22.40;30.24;95157.56;6064420;28;110198;-61
2023/04/08 04:46:16;;;;;;;35.30;32.03;;;;;;;22.27;30.01;95146.97;6076915;28;109236;-62
2023/04/08 04:49:19;;;;;;;25.87;23.67;;;;;;;22.26;29.87;95146.19;6102379;28;109022;-62
2023/04/08 04:52:22;;;;;;;26.80;24.40;;;;;;;22.19;30.12;95150.38;6104464;28;109222;-62
2023/04/08 04:55:25;;;;;;;22.53;20.43;;;;;;;22.15;29.75;95146.72;6095056;28;110252;-61
2023/04/08 04:58:28;;;;;;;22.00;19.93;;;;;;;22.10;28.55;95148.44;6090908;28;110378;-63
2023/04/08 05:01:33;;;;;;;17.00;15.57;;;;;;;22.15;29.26;95160.06;6074991;28;110301;-61
2023/04/08 05:04:36;;;;;;;16.73;15.10;;;;;;;22.10;28.36;95156.44;6099890;28;108837;-61
2023/04/08 05:07:39;;;;;;;19.33;17.63;;;;;;;22.14;28.74;95155.81;6098458;28;109205;-61
2023/04/08 05:10:42;;;;;;;14.20;13.03;;;;;;;22.15;28.19;95150.19;6075967;28;109190;-64
2023/04/08 05:13:45;;;;;;;14.63;13.43;;;;;;;22.19;28.37;95153.84;6106611;28;109149;-62
2023/04/08 05:16:50;;;;;;;14.87;13.43;;;;;;;22.22;27.98;95150.56;6089227;28;109003;-62
2023/04/08 05:19:53;;;;;;;15.10;13.77;;;;;;;22.25;29.93;95149.16;6079538;28;109222;-62
2023/04/08 05:22:56;;;;;;;15.07;13.83;;;;;;;22.19;29.03;95148.50;6075228;28;109072;-61
2023/04/08 05:25:59;;;;;;;15.03;13.80;;;;;;;22.23;29.76;95156.69;6095313;28;109192;-61
2023/04/08 05:29:02;;;;;;;13.57;12.30;;;;;;;22.27;29.52;95152.31;6138718;28;110265;-62
2023/04/08 05:32:07;;;;;;;14.70;13.10;;;;;;;22.29;28.84;95155.44;6113742;28;109336;-63
2023/04/08 05:35:10;;;;;;;15.10;13.53;;;;;;;22.35;28.68;95159.59;6072520;28;109286;-62
2023/04/08 05:38:13;;;;;;;14.60;13.13;;;;;;;22.31;29.01;95155.94;6069704;28;110412;-61
2023/04/08 05:41:16;;;;;;;14.23;12.93;;;;;;;22.29;29.63;95160.78;6092789;28;108810;-62
2023/04/08 05:44:19;;;;;;;14.30;13.13;;;;;;;22.30;28.96;95151.69;6100979;28;109193;-62
2023/04/08 05:47:24;;;;;;;14.70;13.43;;;;;;;22.31;28.58;95158.59;6087562;28;109982;-62
2023/04/08 05:50:27;;;;;;;13.77;12.47;;;;;;;22.41;29.47;95150.38;6100911;28;108995;-61
2023/04/08 05:53:30;;;;;;;14.20;12.43;;;;;;;22.51;29.31;95152.75;6177228;28;109400;-62
2023/04/08 05:56:33;;;;;;;14.03;12.50;;;;;;;22.55;29.21;95159.06;6178622;28;109439;-61
2023/04/08 05:59:36;;;;;;;13.33;12.10;;;;;;;22.67;29.51;95156.63;6180741;28;108988;-61
2023/04/08 06:02:41;;;;;;;12.43;11.33;;;;;;;22.78;29.09;95153.72;6088404;28;109012;-61
2023/04/08 06:05:44;;;;;;;11.73;10.83;;;;;;;22.84;28.86;95155.16;6088567;28;109059;-61
2023/04/08 06:08:47;;;;;;;12.50;11.40;;;;;;;22.88;28.98;95150.78;6078337;28;109037;-62
2023/04/08 06:11:51;;;;;;;11.73;10.77;;;;;;;22.90;28.93;95156.59;6088631;28;109121;-60
2023/04/08 06:14:55;;;;;;;11.33;10.30;;;;;;;22.94;28.56;95152.22;6073554;28;109039;-62
2023/04/08 06:17:59;;;;;;;10.83;9.83;;;;;;;22.96;28.92;95152.69;6062322;28;110111;-60
2023/04/08 06:21:03;;;;;;;10.73;9.93;;;;;;;22.98;28.63;95150.50;6057901;28;110309;-60
2023/04/08 06:24:06;;;;;;;11.73;10.67;;;;;;;23.00;28.84;95157.09;6064880;28;109603;-61
2023/04/08 06:27:09;;;;;;;10.40;9.40;;;;;;;23.01;28.71;95149.88;6064051;28;108917;-61
2023/04/08 06:30:12;;;;;;;10.60;9.80;;;;;;;23.03;28.89;95153.06;6060362;28;109507;-60
2023/04/08 06:33:17;;;;;;;10.33;9.47;;;;;;;23.06;28.85;95155.09;6088104;28;109007;-61
2023/04/08 06:36:20;;;;;;;10.93;9.93;;;;;;;23.10;28.75;95158.72;6088456;28;109036;-61
2023/04/08 06:39:24;;;;;;;9.43;8.73;;;;;;;23.11;28.49;95154.94;6087506;28;109044;-61
2023/04/08 06:42:27;;;;;;;9.37;8.67;;;;;;;23.12;28.80;95159.19;6077932;28;109245;-61
2023/04/08 06:45:30;;;;;;;10.23;9.43;;;;;;;23.12;28.56;95161.88;6073209;28;110796;-61
2023/04/08 06:48:36;;;;;;;9.70;8.90;;;;;;;23.15;28.40;95161.25;6064777;28;109047;-61
2023/04/08 06:51:39;;;;;;;10.63;9.60;;;;;;;23.14;28.85;95162.34;6064192;28;109427;-61
2023/04/08 06:54:45;;;;;;;9.53;8.63;;;;;;;23.13;28.85;95160.75;6053928;28;109271;-60
2023/04/08 06:57:48;;;;;;;9.93;9.13;;;;;;;23.14;28.89;95159.66;6064315;28;109116;-65
2023/04/08 07:00:53;;;;;;;9.13;8.40;;;;;;;23.13;28.66;95159.97;6075659;28;109461;-61
2023/04/08 07:03:58;;;;;;;8.43;7.73;;;;;;;23.14;28.77;95161.56;6093272;28;109090;-61
2023/04/08 07:07:01;;;;;;;8.90;8.10;;;;;;;23.12;28.68;95161.88;6106055;28;109236;-61
2023/04/08 07:10:05;;;;;;;8.33;7.73;;;;;;;23.11;29.18;95159.50;6111401;28;110820;-62
2023/04/08 07:13:11;;;;;;;8.77;8.07;;;;;;;23.13;29.17;95162.66;6112094;28;109572;-61
2023/04/08 07:16:14;;;;;;;9.70;8.80;;;;;;;23.12;28.68;95156.53;6101706;28;109550;-62
2023/04/08 07:19:18;;;;;;;8.30;7.70;;;;;;;23.13;28.60;95162.66;6111952;28;109427;-60
2023/04/08 07:22:22;;;;;;;8.30;7.60;;;;;;;23.13;28.72;95162.66;6110967;28;109225;-62
2023/04/08 07:25:25;;;;;;;8.60;7.90;;;;;;;23.13;28.66;95167.97;6111707;28;109068;-62
2023/04/08 07:28:28;;;;;;;8.80;8.17;;;;;;;23.13;28.85;95158.09;6100285;28;110234;-62
2023/04/08 07:31:31;;;;;;;8.07;7.40;;;;;;;23.12;29.04;95158.41;6095289;28;109043;-70
2023/04/08 07:34:36;;;;;;;7.97;7.37;;;;;;;23.13;28.67;95170.66;6086563;28;108829;-60
2023/04/08 07:37:39;;;;;;;7.90;7.33;;;;;;;23.15;28.73;95166.56;6082770;28;108936;-61
2023/04/08 07:40:42;;;;;;;8.10;7.50;;;;;;;23.13;29.31;95171.44;6082068;28;109157;-61
2023/04/08 07:43:45;;;;;;;8.57;7.87;;;;;;;23.13;29.39;95174.09;6087404;28;110229;-61
2023/04/08 07:46:50;;;;;;;8.10;7.50;;;;;;;23.15;29.17;95176.47;6086981;28;110230;-61
2023/04/08 07:49:55;;;;;;;8.33;7.70;;;;;;;23.15;29.16;95184.47;6077363;28;109357;-61
2023/04/08 07:52:58;;;;;;;7.90;7.30;;;;;;;23.16;28.93;95183.38;6086907;28;109281;-61
2023/04/08 07:56:02;;;;;;;8.53;7.90;;;;;;;23.16;29.07;95184.16;6087124;28;109398;-61
2023/04/08 07:59:06;;;;;;;8.37;7.70;;;;;;;23.16;29.20;95184.16;6087121;28;109090;-61
2023/04/08 08:02:09;;;;;;;7.87;7.27;;;;;;;23.17;28.91;95187.63;6076382;28;110219;-60
2023/04/08 08:05:14;;;;;;;8.60;7.90;;;;;;;23.16;29.37;95191.38;6085819;28;110037;-60
2023/04/08 08:08:17;;;;;;;7.80;7.30;;;;;;;23.19;28.74;95182.78;6086910;28;109043;-61
2023/04/08 08:11:20;;;;;;;7.50;6.97;;;;;;;23.18;28.97;95192.66;6086098;28;109069;-61
2023/04/08 08:14:24;;;;;;;8.33;7.63;;;;;;;23.19;29.37;95193.47;6076677;28;108896;-61
2023/04/08 08:17:29;;;;;;;7.73;7.20;;;;;;;23.20;29.09;95192.38;6086772;28;109335;-60
2023/04/08 08:20:35;;;;;;;8.10;7.50;;;;;;;23.20;29.00;95195.03;6086189;28;110157;-61
2023/04/08 08:23:38;;;;;;;7.90;7.30;;;;;;;23.21;29.01;95185.94;6079826;28;108994;-61
2023/04/08 08:26:41;;;;;;;8.27;7.57;;;;;;;23.23;29.11;95187.19;6083518;28;109247;-62
2023/04/08 08:29:44;;;;;;;7.80;7.20;;;;;;;23.24;28.97;95191.44;6085757;28;109143;-62
2023/04/08 08:32:48;;;;;;;8.33;7.73;;;;;;;23.25;29.04;95192.22;6086494;28;109539;-60
2023/04/08 08:35:53;;;;;;;7.97;7.33;;;;;;;23.27;29.41;95193.47;6076859;28;111035;-61
2023/04/08 08:38:56;;;;;;;8.43;7.80;;;;;;;23.25;29.24;95194.91;6086391;28;109132;-61
2023/04/08 08:41:59;;;;;;;8.20;7.47;;;;;;;23.24;29.28;95202.13;6086014;28;110290;-61
2023/04/08 08:45:03;;;;;;;7.90;7.33;;;;;;;23.24;29.30;95202.13;6086551;28;109241;-62
2023/04/08 08:48:07;;;;;;;8.33;7.70;;;;;;;23.25;29.35;95201.03;6078106;28;110108;-62
2023/04/08 08:51:12;;;;;;;8.63;7.93;;;;;;;23.24;29.27;95206.66;6089951;28;109257;-60
2023/04/08 08:54:16;;;;;;;8.00;7.40;;;;;;;23.20;28.86;95200.38;6089765;28;109411;-61
2023/04/08 08:57:19;;;;;;;8.70;8.10;;;;;;;23.21;29.12;95210.75;6085073;28;109188;-70
2023/04/08 09:00:31;;;;;;;7.57;7.00;;;;;;;23.19;29.07;95212.94;6083948;28;109342;-61
2023/04/08 09:03:36;;;;;;;8.27;7.67;;;;;;;23.19;29.08;95220.16;6088772;28;109087;-61
2023/04/08 09:06:41;;;;;;;8.50;7.90;;;;;;;23.20;29.39;95211.84;6089578;28;109216;-61
2023/04/08 09:09:51;;;;;;;8.40;7.73;;;;;;;23.19;29.17;95215.63;6080519;28;109023;-61
2023/04/08 09:12:55;;;;;;;8.63;8.03;;;;;;;23.19;29.41;95214.81;6089650;28;109159;-65
2023/04/08 09:16:03;;;;;;;8.10;7.50;;;;;;;23.20;29.46;95216.41;6089587;28;110341;-61
2023/04/08 09:19:12;;;;;;;8.47;7.80;;;;;;;23.20;29.40;95219.06;6089179;28;110316;-61
2023/04/08 09:22:16;;;;;;;8.17;7.53;;;;;;;23.21;29.54;95213.41;6079097;28;109243;-61
2023/04/08 09:25:24;;;;;;;8.53;7.83;;;;;;;23.19;29.56;95214.81;6089454;28;108972;-61
2023/04/08 09:28:27;;;;;;;7.80;7.30;;;;;;;23.20;29.14;95211.84;6089635;28;109162;-63
2023/04/08 09:31:31;;;;;;;7.70;7.20;;;;;;;23.23;29.35;95213.91;6084727;28;109340;-61
2023/04/08 09:34:35;;;;;;;8.07;7.47;;;;;;;23.25;29.22;95206.34;6083383;28;110022;-61
2023/04/08 09:37:40;;;;;;;7.27;6.77;;;;;;;23.27;29.17;95198.03;6089332;28;109322;-61
2023/04/08 09:40:44;;;;;;;8.00;7.37;;;;;;;23.30;29.38;95195.56;6089089;28;109351;-62
2023/04/08 09:43:49;;;;;;;8.20;7.60;;;;;;;23.41;29.09;95181.94;6078083;28;110090;-61
2023/04/08 09:47:01;;;;;;;8.87;8.17;;;;;;;23.46;29.07;95176.44;6089406;28;109331;-61
2023/04/08 09:50:07;;;;;;;8.27;7.60;;;;;;;23.48;28.94;95182.25;6088929;28;109974;-61
2023/04/08 09:53:19;;;;;;;7.67;7.07;;;;;;;23.56;28.69;95181.50;6088989;28;109193;-60
2023/04/08 09:56:30;;;;;;;8.73;8.03;;;;;;;23.55;29.38;95174.59;6078155;28;109092;-61
2023/04/08 09:59:37;;;;;;;7.93;7.33;;;;;;;23.56;28.91;95176.16;6088768;28;109186;-62
2023/04/08 10:02:49;;;;;;;7.70;7.10;;;;;;;23.61;29.21;95167.97;6065671;28;108938;-61
2023/04/08 10:05:55;;;;;;;7.80;7.13;;;;;;;23.60;28.59;95161.06;6060081;28;109209;-62
2023/04/08 10:09:01;;;;;;;8.03;7.33;;;;;;;23.63;29.25;95160.44;6061209;28;109136;-60
2023/04/08 10:12:05;;;;;;;7.87;7.27;;;;;;;23.63;28.99;95163.13;6065317;28;108832;-62
2023/04/08 10:15:27;;;;;;;8.13;7.53;;;;;;;23.59;28.69;95157.63;6064955;28;109515;-61
2023/04/08 10:18:32;;;;;;;8.80;8.10;;;;;;;23.56;29.25;95154.78;6076786;28;110261;-61
2023/04/08 10:21:37;;;;;;;7.70;7.10;;;;;;;23.53;28.89;95150.06;6088735;28;109241;-62
2023/04/08 10:25:01;;;;;;;7.77;7.17;;;;;;;23.51;28.96;95160.25;6088749;28;109016;-61
2023/04/08 10:28:26;;;;;;;9.07;8.37;;;;;;;23.47;28.95;95152.09;6084560;28;110300;-61
2023/04/08 10:31:30;;;;;;;8.27;7.60;;;;;;;23.39;29.25;95160.88;6082828;28;109351;-67
2023/04/08 10:34:33;;;;;;;17.63;16.13;;;;;;;23.25;29.75;95150.28;6088024;28;110302;-61
2023/04/08 10:37:36;;;;;;;19.93;18.23;;;;;;;23.28;29.61;95152.34;6088608;28;109231;-62
2023/04/08 10:40:42;;;;;;;19.17;17.47;;;;;;;23.32;30.07;95149.06;6077467;28;109545;-60
2023/04/08 10:43:47;;;;;;;18.30;16.70;;;;;;;23.33;29.55;95153.31;6088226;28;109175;-61
2023/04/08 10:46:52;;;;;;;17.43;16.00;;;;;;;23.29;29.86;95151.25;6087974;28;110341;-61
2023/04/08 10:49:55;;;;;;;17.47;15.87;;;;;;;23.30;30.01;95147.50;6088167;28;109249;-61
2023/04/08 10:52:58;;;;;;;17.83;16.33;;;;;;;23.30;29.40;95141.38;6077502;28;110098;-62
2023/04/08 10:56:07;;;;;;;18.07;16.57;;;;;;;23.29;29.46;95150.47;6088065;28;109205;-61
2023/04/08 10:59:11;;;;;;;17.57;16.13;;;;;;;23.34;29.42;95139.66;6088059;28;109053;-61
2023/04/08 11:02:14;;;;;;;15.57;14.37;;;;;;;23.34;29.82;95130.84;6082590;28;109103;-61
2023/04/08 11:05:22;;;;;;;17.23;15.80;;;;;;;23.34;29.64;95125.50;6081317;28;109099;-61
2023/04/08 11:08:28;;;;;;;17.13;15.73;;;;;;;23.33;29.34;95116.72;6087312;28;109087;-62
2023/04/08 11:11:35;;;;;;;16.53;15.10;;;;;;;23.29;29.45;95113.88;6086820;28;109616;-62
2023/04/08 11:14:41;;;;;;;16.60;15.20;;;;;;;23.27;29.43;95109.94;6076648;28;109729;-62
2023/04/08 11:17:44;;;;;;;16.27;14.90;;;;;;;23.28;29.44;95116.84;6087838;28;109195;-60
2023/04/08 11:20:50;;;;;;;15.90;14.70;;;;;;;23.29;29.80;95113.88;6088264;28;109068;-61
2023/04/08 11:23:54;;;;;;;16.60;15.20;;;;;;;23.32;29.48;95111.69;6087343;28;109256;-61
2023/04/08 11:26:58;;;;;;;16.70;15.20;;;;;;;23.30;29.87;95115.44;6078248;28;109704;-61
2023/04/08 11:30:02;;;;;;;15.33;14.13;;;;;;;23.30;29.68;95110.09;6087500;28;110215;-61
2023/04/08 11:33:05;;;;;;;15.10;13.83;;;;;;;23.30;29.94;95114.66;6087760;28;109532;-62
2023/04/08 11:36:09;;;;;;;17.00;15.60;;;;;;;23.28;29.88;95106.94;6086080;28;108948;-62
2023/04/08 11:39:12;;;;;;;16.47;15.17;;;;;;;23.29;29.93;95110.44;6078272;28;109015;-60
2023/04/08 11:42:28;;;;;;;16.90;15.43;;;;;;;23.30;29.67;95098.66;6086738;28;110104;-61
2023/04/08 11:45:38;;;;;;;16.63;15.23;;;;;;;23.28;30.03;95104.28;6086679;28;109018;-61
2023/04/08 11:48:41;;;;;;;16.13;14.83;;;;;;;23.28;29.44;95103.47;6077275;28;109835;-61
2023/04/08 11:51:57;;;;;;;16.10;14.80;;;;;;;23.28;29.93;95096.25;6086887;28;110684;-60
2023/04/08 11:55:01;;;;;;;16.50;15.10;;;;;;;23.28;29.26;95090.13;6087077;28;109521;-61
2023/04/08 11:58:06;;;;;;;15.67;14.37;;;;;;;23.26;29.72;95095.78;6087156;28;109191;-61
2023/04/08 12:01:09;;;;;;;15.90;14.57;;;;;;;23.24;29.90;95079.28;6076249;28;109157;-60
2023/04/08 12:04:12;;;;;;;15.40;14.20;;;;;;;23.25;29.98;95091.53;6085672;28;108995;-61
2023/04/08 12:07:16;;;;;;;15.30;14.00;;;;;;;23.23;29.31;95091.06;6087110;28;109016;-61
2023/04/08 12:10:19;;;;;;;14.30;13.10;;;;;;;23.22;29.69;95086.84;6083832;28;110345;-61
2023/04/08 12:13:24;;;;;;;15.50;14.20;;;;;;;23.22;29.60;95086.84;6080896;28;108979;-61
2023/04/08 12:16:27;;;;;;;15.80;14.43;;;;;;;23.21;29.82;95077.25;6086845;28;109116;-62
2023/04/08 12:19:30;;;;;;;15.47;14.17;;;;;;;23.22;29.86;95081.50;6086752;28;109059;-62
2023/04/08 12:22:36;;;;;;;14.70;13.50;;;;;;;23.20;29.83;95083.69;6081135;28;109049;-61
2023/04/08 12:25:40;;;;;;;15.47;14.20;;;;;;;23.20;29.52;95081.03;6089838;28;110726;-60
2023/04/08 12:28:45;;;;;;;14.47;13.27;;;;;;;23.20;29.44;95082.91;6090262;28;109223;-61
2023/04/08 12:31:48;;;;;;;14.20;13.00;;;;;;;23.17;30.00;95084.28;6089214;28;108996;-61
2023/04/08 12:34:51;;;;;;;14.07;12.87;;;;;;;23.20;29.22;95081.03;6078962;28;110132;-62
2023/04/08 12:37:54;;;;;;;14.50;13.30;;;;;;;23.21;29.57;95077.25;6089259;28;108880;-62
2023/04/08 12:40:57;;;;;;;15.10;13.90;;;;;;;23.19;29.54;95071.44;6089189;28;109523;-61
2023/04/08 12:44:01;;;;;;;15.37;14.17;;;;;;;23.24;29.86;95073.16;6090047;28;109533;-61
2023/04/08 12:47:04;;;;;;;14.80;13.50;;;;;;;23.25;29.97;95072.06;6080753;28;109661;-61
2023/04/08 12:50:09;;;;;;;13.67;12.50;;;;;;;23.27;29.72;95073.31;6089852;28;109414;-62
2023/04/08 12:53:12;;;;;;;12.53;11.53;;;;;;;23.24;29.73;95060.59;6090163;28;109555;-62
2023/04/08 12:56:15;;;;;;;14.13;13.03;;;;;;;23.22;30.19;95057.47;6084172;28;109564;-62
2023/04/08 12:59:20;;;;;;;13.20;12.20;;;;;;;23.26;30.27;95054.94;6083433;28;109061;-61
2023/04/08 13:02:24;;;;;;;14.00;12.90;;;;;;;23.22;30.17;95054.00;6089713;28;109846;-61
2023/04/08 13:05:27;;;;;;;13.93;12.83;;;;;;;23.19;30.38;95051.97;6088796;28;108828;-60
2023/04/08 13:08:46;;;;;;;14.23;13.07;;;;;;;23.18;30.19;95050.38;6078642;28;109438;-61
2023/04/08 13:11:49;;;;;;;13.60;12.43;;;;;;;23.17;30.53;95051.47;6089762;28;109089;-61
2023/04/08 13:14:54;;;;;;;12.77;11.73;;;;;;;23.15;30.50;95041.09;6089526;28;109008;-61
2023/04/08 13:17:57;;;;;;;13.77;12.67;;;;;;;23.16;30.28;95039.22;6089060;28;109104;-60
2023/04/08 13:21:00;;;;;;;12.03;11.10;;;;;;;23.14;29.85;95036.88;6078165;28;110146;-61
2023/04/08 13:24:04;;;;;;;13.07;12.00;;;;;;;23.15;30.35;95045.66;6089154;28;108963;-61
2023/04/08 13:27:07;;;;;;;12.50;11.50;;;;;;;23.14;29.84;95038.75;6088969;28;108838;-61
2023/04/08 13:30:12;;;;;;;11.97;10.97;;;;;;;23.13;29.83;95037.97;6083839;28;109651;-60
2023/04/08 13:33:16;;;;;;;12.27;11.30;;;;;;;23.15;29.74;95038.44;6083303;28;108920;-61
2023/04/08 13:36:19;;;;;;;12.50;11.50;;;;;;;23.16;29.76;95036.56;6089098;28;109144;-60
2023/04/08 13:39:22;;;;;;;12.83;11.83;;;;;;;23.15;30.06;95035.78;6088850;28;110251;-60
2023/04/08 13:42:25;;;;;;;12.53;11.53;;;;;;;23.14;30.11;95041.41;6077595;28;109207;-60
2023/04/08 13:45:30;;;;;;;11.93;10.93;;;;;;;23.13;29.69;95039.84;6089004;28;109249;-60
2023/04/08 13:48:33;;;;;;;13.00;11.90;;;;;;;23.14;30.08;95039.53;6088512;28;110228;-61
2023/04/08 13:51:37;;;;;;;12.30;11.30;;;;;;;23.14;30.20;95041.41;6088833;28;109081;-61
2023/04/08 13:54:40;;;;;;;11.73;10.83;;;;;;;23.12;29.80;95046.28;6077530;28;109126;-60
2023/04/08 13:57:44;;;;;;;11.50;10.67;;;;;;;23.12;29.88;95049.75;6088385;28;110162;-62
2023/04/08 14:00:50;;;;;;;11.27;10.40;;;;;;;23.13;29.80;95051.31;6088631;28;109161;-61
2023/04/08 14:03:54;;;;;;;11.20;10.30;;;;;;;23.11;29.86;95045.50;6085615;28;110099;-62
2023/04/08 14:06:57;;;;;;;11.30;10.40;;;;;;;23.10;29.94;95049.28;6081694;28;109476;-61